Time;durP1;ratioP1;P1;durP2;ratioP2;P2;SDS_P1;SDS_P2;PMS_P1;PMS_P2;Temp;Humidity;BMP_temperature;BMP_pressure;BME280_temperature;BME280_humidity;BME280_pressure;Samples;Min_cycle;Max_cycle;Signal;HPM_P1;HPM_P2
2023/06/18 00:01:04;;;;;;;0.13;0.13;;;;;;;15.90;66.81;97334.06;5067190;28;20053;-76
2023/06/18 00:03:32;;;;;;;0.13;0.13;;;;;;;15.92;66.88;97334.66;5070035;28;20044;-76
2023/06/18 00:06:00;;;;;;;0.13;0.13;;;;;;;15.76;67.18;97339.72;5068118;28;20049;-76
2023/06/18 00:08:27;;;;;;;0.20;0.20;;;;;;;16.00;66.04;97340.50;5064623;28;20053;-74
2023/06/18 00:10:56;;;;;;;0.03;0.03;;;;;;;15.78;67.30;97344.84;5061762;28;20412;-75
2023/06/18 00:13:24;;;;;;;0.10;0.10;;;;;;;15.47;68.79;97337.88;5064396;28;20076;-77
2023/06/18 00:15:51;;;;;;;0.03;0.03;;;;;;;15.54;68.21;97338.63;5061567;28;20037;-76
2023/06/18 00:18:19;;;;;;;0.22;0.22;;;;;;;15.74;67.20;97335.63;5065182;28;20504;-74
2023/06/18 00:20:48;;;;;;;0.22;0.22;;;;;;;15.50;68.20;97341.97;5059696;28;20123;-75
2023/06/18 00:23:16;;;;;;;0.10;0.10;;;;;;;15.76;66.99;97334.34;5066581;28;20040;-74
2023/06/18 00:25:44;;;;;;;0.15;0.15;;;;;;;15.52;67.46;97337.19;5058752;28;20476;-74
2023/06/18 00:28:13;;;;;;;0.13;0.13;;;;;;;15.66;66.68;97333.28;5059280;28;20044;-75
2023/06/18 00:30:40;;;;;;;0.13;0.13;;;;;;;15.48;67.44;97339.53;5064372;28;20411;-74
2023/06/18 00:33:08;;;;;;;0.03;0.03;;;;;;;15.55;66.97;97331.41;5062789;28;20058;-74
2023/06/18 00:35:36;;;;;;;0.03;0.03;;;;;;;15.52;67.05;97332.63;5062423;28;20136;-75
2023/06/18 00:38:05;;;;;;;0.15;0.15;;;;;;;15.39;67.57;97340.91;5071234;28;20045;-75
2023/06/18 00:40:33;;;;;;;0.03;0.03;;;;;;;15.26;68.14;97338.47;5065722;28;20041;-76
2023/06/18 00:43:03;;;;;;;0.13;0.13;;;;;;;15.02;69.43;97338.38;5073887;28;20051;-76
2023/06/18 00:45:32;;;;;;;0.03;0.03;;;;;;;15.14;68.60;97342.97;5074098;28;20045;-76
2023/06/18 00:48:00;;;;;;;0.15;0.15;;;;;;;15.09;68.97;97342.84;5058904;28;20416;-76
2023/06/18 00:50:32;;;;;;;0.03;0.03;;;;;;;15.07;69.01;97348.44;5065408;28;20052;-76
2023/06/18 00:53:00;;;;;;;0.22;0.22;;;;;;;14.89;69.76;97345.81;5063649;28;20157;-76
2023/06/18 00:55:29;;;;;;;0.13;0.13;;;;;;;15.19;68.26;97348.47;5062685;28;20033;-77
2023/06/18 00:58:02;;;;;;;0.17;0.17;;;;;;;15.01;69.20;97342.13;5059115;28;20424;-76
2023/06/18 01:00:32;;;;;;;0.10;0.10;;;;;;;15.01;69.32;97344.81;5069112;28;20115;-79
2023/06/18 01:03:00;;;;;;;0.20;0.20;;;;;;;14.96;70.02;97349.22;5071158;28;20068;-76
2023/06/18 01:05:29;;;;;;;0.30;0.30;;;;;;;15.15;68.57;97344.63;5068481;28;20698;-77
2023/06/18 01:07:59;;;;;;;0.03;0.03;;;;;;;15.36;68.03;97352.16;5071028;28;20044;-74
2023/06/18 01:10:28;;;;;;;0.17;0.17;;;;;;;15.33;68.01;97355.28;5068292;28;20079;-78
2023/06/18 01:12:58;;;;;;;0.13;0.13;;;;;;;15.12;68.67;97353.13;5076974;28;20539;-77
2023/06/18 01:15:27;;;;;;;0.20;0.20;;;;;;;15.06;68.73;97352.16;5062313;28;20805;-75
2023/06/18 01:17:57;;;;;;;0.08;0.08;;;;;;;14.92;68.99;97354.25;5074604;28;20050;-75
2023/06/18 01:20:27;;;;;;;0.13;0.13;;;;;;;14.98;68.97;97355.19;5066395;28;20061;-75
2023/06/18 01:22:59;;;;;;;0.13;0.13;;;;;;;14.89;68.87;97345.81;5065120;28;20044;-77
2023/06/18 01:25:27;;;;;;;0.13;0.13;;;;;;;14.99;68.64;97349.59;5069722;28;20045;-77
2023/06/18 01:27:56;;;;;;;0.05;0.05;;;;;;;15.10;68.33;97339.09;5070014;28;20066;-78
2023/06/18 01:30:23;;;;;;;0.13;0.13;;;;;;;14.96;68.67;97344.66;5065247;28;20103;-76
2023/06/18 01:32:54;;;;;;;0.05;0.05;;;;;;;14.94;68.72;97344.09;5069549;28;20089;-76
2023/06/18 01:35:24;;;;;;;0.13;0.13;;;;;;;14.92;68.59;97348.03;5067604;28;20450;-76
2023/06/18 01:38:07;;;;;;;0.13;0.13;;;;;;;14.81;69.08;97346.94;5081023;28;20098;-77
2023/06/18 01:40:40;;;;;;;0.15;0.15;;;;;;;14.87;68.90;97347.91;5074206;28;20051;-76
2023/06/18 01:43:12;;;;;;;0.22;0.22;;;;;;;15.08;68.06;97344.69;5073937;28;20044;-76
2023/06/18 01:45:43;;;;;;;0.10;0.10;;;;;;;15.19;67.50;97338.53;5062361;28;20040;-77
2023/06/18 01:48:12;;;;;;;0.10;0.10;;;;;;;14.90;68.14;97345.59;5076954;28;20049;-75
2023/06/18 01:50:44;;;;;;;0.00;0.00;;;;;;;14.84;68.67;97340.31;5064804;28;20592;-75
2023/06/18 01:53:16;;;;;;;0.13;0.13;;;;;;;14.77;68.90;97339.56;5066824;28;20116;-75
2023/06/18 01:55:45;;;;;;;0.13;0.13;;;;;;;14.80;68.83;97349.88;5068444;28;20449;-76
2023/06/18 01:58:15;;;;;;;0.13;0.13;;;;;;;14.71;69.08;97343.16;5071480;28;20045;-75
2023/06/18 02:00:43;;;;;;;0.20;0.20;;;;;;;14.51;69.50;97346.09;5076262;28;20072;-75
2023/06/18 02:03:10;;;;;;;0.00;0.00;;;;;;;14.76;68.47;97344.13;5076399;28;20123;-76
2023/06/18 02:05:38;;;;;;;0.13;0.13;;;;;;;14.57;69.45;97346.00;5065723;28;20048;-77
2023/06/18 02:08:07;;;;;;;0.10;0.10;;;;;;;14.36;69.84;97341.09;5059713;28;20051;-77
2023/06/18 02:10:34;;;;;;;0.15;0.15;;;;;;;14.23;70.07;97342.03;5066324;28;20032;-77
2023/06/18 02:13:02;;;;;;;0.13;0.13;;;;;;;14.07;70.75;97345.34;5068404;28;20048;-77
2023/06/18 02:15:30;;;;;;;0.15;0.15;;;;;;;14.09;70.46;97350.50;5067276;28;20036;-76
2023/06/18 02:17:57;;;;;;;0.22;0.22;;;;;;;14.08;70.49;97351.53;5058987;28;20139;-75
2023/06/18 02:20:25;;;;;;;0.10;0.10;;;;;;;14.11;70.28;97354.59;5063515;28;20053;-76
2023/06/18 02:22:54;;;;;;;0.10;0.10;;;;;;;14.18;70.04;97349.16;5068922;28;20115;-76
2023/06/18 02:25:28;;;;;;;0.13;0.13;;;;;;;14.02;70.30;97353.22;5074867;28;20137;-76
2023/06/18 02:27:58;;;;;;;0.22;0.22;;;;;;;14.00;70.59;97352.66;5072790;28;20035;-76
2023/06/18 02:30:28;;;;;;;0.15;0.15;;;;;;;13.96;70.47;97352.25;5068159;28;20053;-76
2023/06/18 02:32:58;;;;;;;0.13;0.13;;;;;;;14.07;70.25;97355.25;5068537;28;20080;-77
2023/06/18 02:35:26;;;;;;;0.13;0.13;;;;;;;14.01;70.52;97354.28;5075654;28;20055;-77
2023/06/18 02:37:54;;;;;;;0.10;0.10;;;;;;;14.09;70.23;97350.50;5055351;28;20056;-76
2023/06/18 02:40:23;;;;;;;0.13;0.13;;;;;;;14.02;70.35;97352.41;5065049;28;20057;-77
2023/06/18 02:42:52;;;;;;;0.22;0.22;;;;;;;14.08;70.04;97357.72;5064716;28;20158;-77
2023/06/18 02:45:22;;;;;;;0.22;0.22;;;;;;;14.16;69.63;97353.91;5070883;28;20041;-76
2023/06/18 02:47:51;;;;;;;0.25;0.25;;;;;;;13.78;70.86;97356.78;5071372;28;20040;-77
2023/06/18 02:50:20;;;;;;;0.13;0.13;;;;;;;13.70;71.10;97360.56;5068827;28;20053;-78
2023/06/18 02:52:48;;;;;;;0.20;0.20;;;;;;;13.88;70.50;97360.59;5066998;28;20040;-77
2023/06/18 02:55:16;;;;;;;0.15;0.15;;;;;;;13.94;70.01;97357.03;5056235;28;20041;-77
2023/06/18 02:57:46;;;;;;;0.30;0.30;;;;;;;13.89;70.22;97356.88;5068209;28;20484;-78
2023/06/18 03:00:14;;;;;;;0.10;0.10;;;;;;;13.94;69.61;97357.03;5055650;28;20111;-78
2023/06/18 03:02:45;;;;;;;0.13;0.13;;;;;;;13.76;70.36;97353.50;5064264;28;20052;-80
2023/06/18 03:05:17;;;;;;;0.13;0.13;;;;;;;13.47;71.62;97350.44;5059047;28;20056;-78
2023/06/18 03:07:45;;;;;;;0.13;0.13;;;;;;;13.40;71.38;97349.66;5069740;28;20047;-78
2023/06/18 03:10:13;;;;;;;0.10;0.10;;;;;;;13.58;71.05;97356.97;5059325;28;20060;-78
2023/06/18 03:12:43;;;;;;;0.10;0.10;;;;;;;13.76;70.11;97358.84;5069045;28;20040;-78
2023/06/18 03:15:35;;;;;;;0.10;0.10;;;;;;;13.73;70.01;97359.28;5062724;28;20040;-78
2023/06/18 03:18:03;;;;;;;0.03;0.03;;;;;;;13.43;71.28;97353.78;5060932;28;20067;-78
2023/06/18 03:20:31;;;;;;;0.13;0.13;;;;;;;13.59;70.68;97358.59;5065137;28;20036;-78
2023/06/18 03:23:00;;;;;;;0.20;0.20;;;;;;;13.49;71.40;97366.31;5063457;28;20052;-78
2023/06/18 03:25:27;;;;;;;0.10;0.10;;;;;;;13.54;71.21;97363.78;5074211;28;20041;-78
2023/06/18 03:27:55;;;;;;;0.22;0.22;;;;;;;13.39;71.68;97364.09;5060817;28;20488;-79
2023/06/18 03:30:25;;;;;;;0.13;0.13;;;;;;;13.45;71.45;97365.94;5065009;28;20044;-77
2023/06/18 03:32:56;;;;;;;0.20;0.20;;;;;;;13.46;71.56;97364.06;5080670;28;20048;-76
2023/06/18 03:35:24;;;;;;;0.20;0.20;;;;;;;13.44;71.67;97366.13;5069604;28;20476;-76
2023/06/18 03:37:52;;;;;;;0.13;0.13;;;;;;;13.58;71.06;97365.81;5057115;28;20087;-79
2023/06/18 03:40:20;;;;;;;0.20;0.20;;;;;;;13.65;70.95;97364.94;5082676;28;20094;-79
2023/06/18 03:42:48;;;;;;;0.03;0.03;;;;;;;13.71;70.33;97366.72;5073596;28;20075;-79
2023/06/18 03:45:21;;;;;;;0.13;0.13;;;;;;;13.70;70.61;97371.31;5078093;28;20048;-80
2023/06/18 03:47:49;;;;;;;0.20;0.20;;;;;;;13.90;69.97;97369.25;5069730;28;20466;-80
2023/06/18 03:50:21;;;;;;;0.20;0.20;;;;;;;13.78;70.20;97365.66;5091256;28;20181;-79
2023/06/18 03:52:49;;;;;;;0.13;0.13;;;;;;;13.73;70.04;97359.28;5077296;28;20079;-78
2023/06/18 03:55:18;;;;;;;0.03;0.03;;;;;;;13.62;70.74;97358.16;5065015;28;20040;-77
2023/06/18 03:57:46;;;;;;;0.13;0.13;;;;;;;13.47;71.17;97353.13;5073033;28;20115;-78
2023/06/18 04:00:14;;;;;;;0.10;0.10;;;;;;;13.41;71.54;97358.53;5059514;28;20134;-78
2023/06/18 04:02:43;;;;;;;0.13;0.13;;;;;;;13.41;71.49;97358.53;5061872;28;20071;-78
2023/06/18 04:05:17;;;;;;;0.10;0.10;;;;;;;13.53;71.13;97364.81;5080397;28;20524;-78
2023/06/18 04:07:46;;;;;;;0.13;0.13;;;;;;;13.52;71.39;97357.81;5060521;28;20049;-78
2023/06/18 04:10:18;;;;;;;0.22;0.22;;;;;;;13.49;71.56;97363.66;5070558;28;20507;-78
2023/06/18 04:12:48;;;;;;;0.22;0.22;;;;;;;13.67;70.92;97369.06;5061987;28;20419;-78
2023/06/18 04:15:16;;;;;;;0.13;0.13;;;;;;;13.46;71.95;97370.25;5056780;28;20041;-78
2023/06/18 04:17:45;;;;;;;0.10;0.10;;;;;;;13.50;71.83;97368.75;5060737;28;20047;-78
2023/06/18 04:20:14;;;;;;;0.15;0.15;;;;;;;13.57;71.62;97368.72;5067239;28;20041;-76
2023/06/18 04:22:43;;;;;;;0.10;0.10;;;;;;;13.65;71.35;97368.44;5068114;28;20098;-75
2023/06/18 04:25:13;;;;;;;0.13;0.13;;;;;;;13.65;71.38;97356.91;5070800;28;20090;-75
2023/06/18 04:27:44;;;;;;;0.10;0.10;;;;;;;13.70;71.13;97360.56;5068001;28;20135;-75
2023/06/18 04:30:12;;;;;;;0.22;0.22;;;;;;;13.76;70.87;97366.91;5066104;28;20075;-76
2023/06/18 04:32:41;;;;;;;0.10;0.10;;;;;;;13.74;71.08;97361.75;5072590;28;20041;-77
2023/06/18 04:35:09;;;;;;;0.30;0.30;;;;;;;13.76;71.32;97364.22;5069570;28;20145;-79
2023/06/18 04:37:37;;;;;;;0.30;0.30;;;;;;;13.79;71.12;97366.47;5073395;28;20041;-77
2023/06/18 04:40:06;;;;;;;0.13;0.13;;;;;;;13.79;71.12;97361.94;5072102;28;20040;-77
2023/06/18 04:42:36;;;;;;;0.13;0.13;;;;;;;13.88;70.64;97360.59;5072078;28;20041;-76
2023/06/18 04:45:06;;;;;;;0.20;0.20;;;;;;;13.96;70.53;97364.84;5064475;28;20135;-75
2023/06/18 04:47:33;;;;;;;0.00;0.00;;;;;;;14.06;70.59;97365.16;5079203;28;20160;-75
2023/06/18 04:50:02;;;;;;;0.17;0.17;;;;;;;14.12;70.43;97363.47;5061957;28;20048;-76
2023/06/18 04:52:32;;;;;;;0.13;0.13;;;;;;;14.22;70.08;97358.41;5067351;28;20132;-75
2023/06/18 04:55:00;;;;;;;0.08;0.08;;;;;;;14.32;69.54;97359.53;5061445;28;20427;-75
2023/06/18 04:57:28;;;;;;;0.22;0.22;;;;;;;14.34;69.46;97367.31;5072805;28;20417;-76
2023/06/18 04:59:59;;;;;;;0.20;0.20;;;;;;;14.42;69.64;97367.09;5069044;28;20052;-76
2023/06/18 05:02:31;;;;;;;0.03;0.03;;;;;;;14.37;69.95;97366.88;5078274;28;20073;-78
2023/06/18 05:05:00;;;;;;;0.10;0.10;;;;;;;14.53;69.26;97369.03;5069403;28;20400;-75
2023/06/18 05:07:27;;;;;;;0.20;0.20;;;;;;;14.60;69.03;97363.56;5073103;28;20538;-77
2023/06/18 05:09:55;;;;;;;0.20;0.20;;;;;;;14.73;69.15;97373.31;5074849;28;20107;-75
2023/06/18 05:12:24;;;;;;;0.10;0.10;;;;;;;14.72;68.90;97364.44;5064122;28;20049;-75
2023/06/18 05:14:53;;;;;;;0.22;0.22;;;;;;;14.74;69.07;97375.78;5072290;28;20040;-76
2023/06/18 05:17:23;;;;;;;0.03;0.03;;;;;;;14.77;68.77;97375.31;5065233;28;20045;-75
2023/06/18 05:19:53;;;;;;;0.10;0.10;;;;;;;14.72;69.28;97369.81;5064387;28;20079;-75
2023/06/18 05:22:21;;;;;;;0.10;0.10;;;;;;;14.87;69.03;97372.09;5066311;28;20098;-76
2023/06/18 05:24:49;;;;;;;0.13;0.13;;;;;;;15.06;68.72;97371.81;5080173;28;20412;-76
2023/06/18 05:27:17;;;;;;;0.13;0.13;;;;;;;15.04;68.59;97381.16;5058009;28;20036;-76
2023/06/18 05:29:45;;;;;;;0.20;0.20;;;;;;;15.01;68.87;97374.38;5065161;28;20036;-76
2023/06/18 05:32:12;;;;;;;0.00;0.00;;;;;;;15.07;68.86;97378.81;5062632;28;20066;-77
2023/06/18 05:34:43;;;;;;;0.13;0.13;;;;;;;15.16;68.61;97384.69;5073975;28;20091;-76
2023/06/18 05:37:10;;;;;;;0.13;0.13;;;;;;;15.30;68.38;97380.78;5066086;28;20056;-77
2023/06/18 05:39:38;;;;;;;0.10;0.10;;;;;;;15.33;67.94;97382.19;5075352;28;20052;-76
2023/06/18 05:42:08;;;;;;;0.03;0.03;;;;;;;15.39;68.29;97383.94;5063850;28;20404;-77
2023/06/18 05:44:36;;;;;;;0.13;0.13;;;;;;;15.46;68.06;97387.38;5068923;28;20044;-76
2023/06/18 05:47:04;;;;;;;0.13;0.13;;;;;;;15.48;67.90;97392.50;5076655;28;20531;-76
2023/06/18 05:49:33;;;;;;;0.13;0.13;;;;;;;15.61;67.71;97389.66;5071909;28;20556;-74
2023/06/18 05:52:03;;;;;;;0.03;0.03;;;;;;;15.61;67.66;97381.56;5081547;28;20242;-74
2023/06/18 05:54:32;;;;;;;0.10;0.10;;;;;;;15.75;67.42;97391.91;5059771;28;20041;-74
2023/06/18 05:57:01;;;;;;;0.25;0.25;;;;;;;15.88;67.10;97396.25;5065586;28;20037;-74
2023/06/18 05:59:28;;;;;;;0.03;0.03;;;;;;;16.04;66.72;97390.16;5066880;28;20041;-77
2023/06/18 06:02:05;;;;;;;0.20;0.20;;;;;;;16.22;66.33;97399.16;5076804;28;20484;-78
2023/06/18 06:04:33;;;;;;;0.08;0.08;;;;;;;16.24;66.38;97395.19;5066043;28;20377;-71
2023/06/18 06:07:01;;;;;;;0.13;0.13;;;;;;;16.31;66.23;97403.13;5070416;28;20037;-71
2023/06/18 06:09:30;;;;;;;0.20;0.20;;;;;;;16.29;66.32;97402.56;5072912;28;20075;-71
2023/06/18 06:11:57;;;;;;;0.20;0.20;;;;;;;16.38;66.07;97403.84;5065400;28;20059;-71
2023/06/18 06:14:25;;;;;;;0.05;0.05;;;;;;;16.44;65.86;97401.00;5080406;28;20440;-71
2023/06/18 06:16:57;;;;;;;0.13;0.13;;;;;;;16.65;65.58;97398.78;5059235;28;20041;-71
2023/06/18 06:19:25;;;;;;;0.10;0.10;;;;;;;16.78;64.98;97395.81;5066439;28;20108;-71
2023/06/18 06:21:52;;;;;;;0.15;0.15;;;;;;;16.84;64.83;97397.53;5065652;28;20504;-71
2023/06/18 06:24:22;;;;;;;0.13;0.13;;;;;;;16.90;65.01;97398.47;5061083;28;20627;-71
2023/06/18 06:26:51;;;;;;;0.10;0.10;;;;;;;16.93;64.92;97401.50;5072118;28;20040;-71
2023/06/18 06:29:18;;;;;;;0.10;0.10;;;;;;;17.06;64.66;97395.84;5066060;28;20051;-71
2023/06/18 06:31:47;;;;;;;0.10;0.10;;;;;;;17.23;64.25;97407.47;5064767;28;20040;-71
2023/06/18 06:34:15;;;;;;;0.10;0.10;;;;;;;17.41;63.07;97395.69;5074641;28;20111;-71
2023/06/18 06:36:43;;;;;;;0.03;0.03;;;;;;;17.56;62.70;97404.03;5062063;28;20036;-71
2023/06/18 06:39:13;;;;;;;0.10;0.10;;;;;;;17.69;62.17;97402.94;5056917;28;20067;-72
2023/06/18 06:41:41;;;;;;;0.03;0.03;;;;;;;17.80;61.78;97402.03;5064028;28;20143;-72
2023/06/18 06:44:11;;;;;;;0.10;0.10;;;;;;;18.00;61.18;97403.41;5059547;28;20045;-71
2023/06/18 06:46:51;;;;;;;0.10;0.10;;;;;;;18.15;60.98;97407.19;5061224;28;20068;-71
2023/06/18 06:49:33;;;;;;;0.10;0.10;;;;;;;18.39;61.21;97402.38;5065263;28;20040;-72
2023/06/18 06:52:18;;;;;;;0.03;0.03;;;;;;;18.49;60.82;97399.81;5062553;28;20397;-72
2023/06/18 06:54:49;;;;;;;0.00;0.00;;;;;;;18.53;60.72;97400.16;5063971;28;20044;-72
2023/06/18 06:57:16;;;;;;;0.10;0.10;;;;;;;18.71;59.75;97402.56;5062407;28;20044;-71
2023/06/18 06:59:45;;;;;;;0.13;0.13;;;;;;;18.93;58.79;97400.69;5060120;28;20044;-71
2023/06/18 07:02:13;;;;;;;0.00;0.00;;;;;;;19.12;58.53;97411.16;5070302;28;20111;-71
2023/06/18 07:04:46;;;;;;;0.20;0.20;;;;;;;19.20;58.05;97408.84;5056376;28;20044;-71
2023/06/18 07:07:13;;;;;;;;;;;;;;;19.41;57.03;97407.97;5058242;28;20044;-71
2023/06/18 07:09:41;;;;;;;0.10;0.10;;;;;;;19.68;56.23;97405.28;5064539;28;20327;-71
2023/06/18 07:12:10;;;;;;;0.13;0.13;;;;;;;19.86;55.74;97414.09;5065659;28;20048;-71
2023/06/18 07:14:37;;;;;;;0.13;0.13;;;;;;;20.02;55.88;97411.28;5062005;28;20420;-71
2023/06/18 07:17:06;;;;;;;0.05;0.05;;;;;;;20.10;55.42;97412.69;5059802;28;20044;-71
2023/06/18 07:19:34;;;;;;;0.10;0.10;;;;;;;20.28;54.91;97416.84;5064425;28;20072;-71
2023/06/18 07:22:01;;;;;;;0.08;0.08;;;;;;;20.57;53.80;97412.72;5064265;28;20049;-71
2023/06/18 07:24:29;;;;;;;0.17;0.17;;;;;;;20.64;53.61;97413.31;5080218;28;20047;-72
2023/06/18 07:26:57;;;;;;;0.00;0.00;;;;;;;20.79;53.66;97410.69;5058368;28;20045;-72
2023/06/18 07:29:25;;;;;;;0.10;0.10;;;;;;;20.94;52.00;97395.56;5063666;28;20444;-72
2023/06/18 07:31:52;;;;;;;0.10;0.10;;;;;;;21.05;51.28;97394.50;5064620;28;20108;-72
2023/06/18 07:34:21;;;;;;;0.20;0.20;;;;;;;21.21;49.22;97397.03;5056715;28;20041;-72
2023/06/18 07:36:49;;;;;;;0.13;0.13;;;;;;;21.39;48.20;97397.59;5061052;28;20044;-71
2023/06/18 07:39:17;;;;;;;0.05;0.05;;;;;;;21.59;48.20;97393.00;5059445;28;20083;-71
2023/06/18 07:41:49;;;;;;;0.10;0.10;;;;;;;21.54;47.15;97390.31;5065146;28;20043;-71
2023/06/18 07:44:17;;;;;;;0.10;0.10;;;;;;;21.76;45.69;97389.22;5062512;28;20051;-72
2023/06/18 07:46:45;;;;;;;0.10;0.10;;;;;;;21.82;44.02;97393.56;5069791;28;20051;-72
2023/06/18 07:49:13;;;;;;;0.10;0.10;;;;;;;21.75;45.67;97388.41;5066977;28;20082;-72
2023/06/18 07:51:42;;;;;;;0.10;0.10;;;;;;;22.03;43.21;97387.06;5075044;28;20036;-72
2023/06/18 07:54:09;;;;;;;0.10;0.10;;;;;;;22.04;42.98;97388.72;5064946;28;20408;-72
2023/06/18 07:56:37;;;;;;;0.10;0.10;;;;;;;22.40;42.41;97386.78;5060091;28;20033;-72
2023/06/18 07:59:04;;;;;;;0.08;0.08;;;;;;;22.65;40.75;97386.69;5058874;28;20504;-72
2023/06/18 08:01:33;;;;;;;0.10;0.10;;;;;;;22.85;41.17;97393.19;5060971;28;20369;-72
2023/06/18 08:04:00;;;;;;;0.10;0.10;;;;;;;23.02;41.01;97377.31;5067134;28;20040;-72
2023/06/18 08:06:28;;;;;;;0.10;0.10;;;;;;;23.25;41.37;97392.19;5070829;28;20489;-72
2023/06/18 08:08:57;;;;;;;0.03;0.03;;;;;;;23.42;40.39;97381.72;5083592;28;20470;-72
2023/06/18 08:11:25;;;;;;;0.00;0.00;;;;;;;23.51;39.73;97384.69;5070173;28;20045;-72
2023/06/18 08:13:55;;;;;;;0.10;0.10;;;;;;;23.62;40.28;97388.97;5061197;28;20097;-72
2023/06/18 08:16:23;;;;;;;0.10;0.10;;;;;;;23.69;39.70;97390.28;5066681;28;20178;-72
2023/06/18 08:18:52;;;;;;;0.10;0.10;;;;;;;23.90;39.68;97398.31;5064791;28;20044;-72
2023/06/18 08:21:21;;;;;;;0.00;0.00;;;;;;;24.11;40.69;97395.13;5065809;28;20572;-72
2023/06/18 08:23:49;;;;;;;0.10;0.10;;;;;;;24.21;39.33;97391.47;5078175;28;20443;-72
2023/06/18 08:26:19;;;;;;;0.10;0.10;;;;;;;24.50;37.49;97402.44;5065799;28;20048;-72
2023/06/18 08:28:47;;;;;;;0.10;0.10;;;;;;;24.64;35.57;97395.19;5059673;28;20044;-72
2023/06/18 08:31:15;;;;;;;0.05;0.05;;;;;;;24.62;35.87;97394.66;5075284;28;20044;-72
2023/06/18 08:33:42;;;;;;;0.05;0.05;;;;;;;24.63;36.25;97390.81;5083144;28;20048;-72
2023/06/18 08:36:10;;;;;;;0.03;0.03;;;;;;;24.23;36.26;97393.97;5065026;28;20045;-72
2023/06/18 08:38:37;;;;;;;0.03;0.03;;;;;;;24.61;36.51;97386.75;5060417;28;20040;-72
2023/06/18 08:41:07;;;;;;;0.03;0.03;;;;;;;24.62;35.32;97388.38;5062068;28;20056;-72
2023/06/18 08:43:37;;;;;;;0.10;0.10;;;;;;;24.87;35.84;97388.91;5064743;28;20048;-72
2023/06/18 08:46:10;;;;;;;0.05;0.05;;;;;;;25.14;34.62;97380.13;5066829;28;20075;-72
2023/06/18 08:48:43;;;;;;;0.03;0.03;;;;;;;25.35;35.42;97374.38;5071065;28;20032;-72
2023/06/18 08:51:11;;;;;;;0.05;0.05;;;;;;;25.57;34.58;97377.31;5066197;28;20148;-72
2023/06/18 08:53:41;;;;;;;0.03;0.03;;;;;;;25.53;35.51;97370.84;5067392;28;20037;-72
2023/06/18 08:56:09;;;;;;;0.03;0.03;;;;;;;25.67;35.44;97374.47;5059908;28;20063;-73
2023/06/18 08:58:44;;;;;;;0.00;0.00;;;;;;;25.75;34.99;97368.31;5068724;28;20031;-72
2023/06/18 09:01:13;;;;;;;0.00;0.00;;;;;;;25.78;34.68;97364.19;5064154;28;20052;-72
2023/06/18 09:03:41;;;;;;;0.03;0.03;;;;;;;25.86;34.80;97369.78;5068901;28;20407;-73
2023/06/18 09:06:09;;;;;;;0.03;0.03;;;;;;;25.73;34.19;97365.09;5062666;28;20072;-71
2023/06/18 09:08:37;;;;;;;0.03;0.03;;;;;;;25.52;35.68;97370.03;5072477;28;20040;-72
2023/06/18 09:11:06;;;;;;;0.10;0.10;;;;;;;25.82;35.68;97365.22;5056748;28;20041;-71
2023/06/18 09:13:43;;;;;;;0.10;0.10;;;;;;;25.85;34.92;97370.09;5072336;28;20642;-73
2023/06/18 09:16:12;;;;;;;0.00;0.00;;;;;;;25.89;35.41;97365.63;5066930;28;20127;-72
2023/06/18 09:18:39;;;;;;;0.00;0.00;;;;;;;25.73;35.34;97361.53;5077078;28;20042;-72
2023/06/18 09:21:07;;;;;;;0.03;0.03;;;;;;;25.55;35.35;97365.88;5061381;28;20732;-73
2023/06/18 09:23:35;;;;;;;0.00;0.00;;;;;;;25.72;34.67;97368.94;5070155;28;20086;-73
2023/06/18 09:26:03;;;;;;;0.00;0.00;;;;;;;25.81;33.61;97366.31;5073571;28;20048;-72
2023/06/18 09:28:31;;;;;;;0.00;0.00;;;;;;;25.79;34.39;97363.88;5064505;28;20102;-72
2023/06/18 09:31:01;;;;;;;0.03;0.03;;;;;;;25.81;33.48;97360.84;5066124;28;20047;-72
2023/06/18 09:33:31;;;;;;;0.03;0.03;;;;;;;25.65;33.45;97367.66;5083757;28;20040;-72
2023/06/18 09:36:00;;;;;;;0.03;0.03;;;;;;;25.80;33.84;97361.97;5065285;28;20039;-72
2023/06/18 09:38:35;;;;;;;0.00;0.00;;;;;;;25.92;33.96;97363.13;5076633;28;20508;-72
2023/06/18 09:41:09;;;;;;;0.00;0.00;;;;;;;26.20;33.66;97355.78;5064826;28;20045;-72
2023/06/18 09:43:38;;;;;;;0.10;0.10;;;;;;;26.66;32.85;97354.97;5055530;28;20033;-72
2023/06/18 09:46:08;;;;;;;0.00;0.00;;;;;;;25.85;33.76;97361.91;5060190;28;20036;-71
2023/06/18 09:48:40;;;;;;;0.00;0.00;;;;;;;26.13;32.95;97360.84;5063213;28;20041;-72
2023/06/18 09:51:08;;;;;;;0.10;0.10;;;;;;;26.28;33.23;97352.38;5065533;28;20095;-72
2023/06/18 09:53:36;;;;;;;0.00;0.00;;;;;;;26.59;31.89;97355.34;5056365;28;20052;-72
2023/06/18 09:56:12;;;;;;;0.03;0.03;;;;;;;26.94;29.86;97355.78;5057315;28;20041;-72
2023/06/18 09:58:42;;;;;;;0.03;0.03;;;;;;;26.86;29.10;97357.31;5072252;28;20119;-72
2023/06/18 10:01:11;;;;;;;0.00;0.00;;;;;;;26.85;29.17;97349.38;5057337;28;20045;-72
2023/06/18 10:03:39;;;;;;;0.00;0.00;;;;;;;26.59;28.28;97349.88;5057787;28;20143;-73
2023/06/18 10:06:13;;;;;;;0.00;0.00;;;;;;;26.64;28.60;97352.53;5062229;28;20045;-72
2023/06/18 10:08:44;;;;;;;0.00;0.00;;;;;;;26.90;28.32;97344.59;5062779;28;20617;-72
2023/06/18 10:11:12;;;;;;;0.03;0.03;;;;;;;27.07;28.18;97345.94;5061663;28;20465;-72
2023/06/18 10:13:43;;;;;;;0.00;0.00;;;;;;;27.20;27.37;97353.34;5073414;28;20057;-72
2023/06/18 10:16:14;;;;;;;0.00;0.00;;;;;;;27.30;27.82;97351.19;5053760;28;20056;-72
2023/06/18 10:18:49;;;;;;;0.00;0.00;;;;;;;27.55;27.73;97348.97;5070610;28;20044;-71
2023/06/18 10:21:20;;;;;;;0.00;0.00;;;;;;;27.40;27.45;97348.22;5060091;28;20500;-71
2023/06/18 10:23:53;;;;;;;0.00;0.00;;;;;;;27.45;27.87;97336.28;5071190;28;20042;-73
2023/06/18 10:26:20;;;;;;;;;;;;;;;27.78;27.26;97336.91;5066022;28;20483;-71
2023/06/18 10:28:48;;;;;;;0.00;0.00;;;;;;;28.00;27.04;97341.56;5073063;28;19920;-72
2023/06/18 10:31:18;;;;;;;0.10;0.10;;;;;;;28.16;26.31;97348.28;5059112;28;20060;-71
2023/06/18 10:33:46;;;;;;;0.00;0.00;;;;;;;27.66;26.53;97342.13;5069882;28;20111;-72
2023/06/18 10:36:13;;;;;;;0.03;0.03;;;;;;;27.73;25.96;97340.56;5067572;28;20052;-72
2023/06/18 10:38:41;;;;;;;0.00;0.00;;;;;;;28.17;26.14;97338.94;5082944;28;20043;-73
2023/06/18 10:41:10;;;;;;;0.00;0.00;;;;;;;28.42;25.44;97341.03;5064253;28;20119;-72
2023/06/18 10:43:41;;;;;;;0.00;0.00;;;;;;;28.62;24.59;97331.41;5059704;28;20037;-73
2023/06/18 10:46:10;;;;;;;0.10;0.10;;;;;;;28.82;24.26;97338.31;5065413;28;20041;-72
2023/06/18 10:48:40;;;;;;;0.00;0.00;;;;;;;28.72;24.02;97338.56;5057506;28;20036;-72
2023/06/18 10:51:17;;;;;;;0.00;0.00;;;;;;;28.86;24.01;97332.97;5074104;28;20036;-72
2023/06/18 10:53:46;;;;;;;0.00;0.00;;;;;;;29.05;24.35;97330.75;5058683;28;20041;-72
2023/06/18 10:56:15;;;;;;;0.10;0.10;;;;;;;28.67;24.29;97331.25;5069558;28;20072;-72
2023/06/18 10:58:43;;;;;;;0.00;0.00;;;;;;;28.48;24.60;97330.69;5072497;28;20090;-72
2023/06/18 11:01:24;;;;;;;0.00;0.00;;;;;;;28.00;25.80;97320.44;5073469;28;20046;-72
2023/06/18 11:04:11;;;;;;;0.00;0.00;;;;;;;27.31;26.48;97316.31;5074350;28;20040;-72
2023/06/18 11:06:40;;;;;;;0.00;0.00;;;;;;;27.51;26.08;97315.06;5056711;28;20040;-71
2023/06/18 11:09:13;;;;;;;0.00;0.00;;;;;;;27.92;26.24;97315.72;5079585;28;20040;-72
2023/06/18 11:11:49;;;;;;;0.00;0.00;;;;;;;28.49;24.22;97315.84;5070970;28;20040;-71
2023/06/18 11:14:20;;;;;;;0.00;0.00;;;;;;;28.81;23.62;97310.00;5064965;28;20140;-71
2023/06/18 11:17:08;;;;;;;0.00;0.00;;;;;;;28.92;23.39;97316.00;5057022;28;20049;-72
2023/06/18 11:19:38;;;;;;;0.00;0.00;;;;;;;28.57;23.65;97308.75;5069013;28;20044;-71
2023/06/18 11:22:06;;;;;;;0.05;0.05;;;;;;;28.61;24.51;97304.25;5072648;28;20041;-72
2023/06/18 11:24:34;;;;;;;0.03;0.03;;;;;;;29.06;24.05;97308.44;5089148;28;20379;-72
2023/06/18 11:27:02;;;;;;;0.00;0.00;;;;;;;29.09;22.99;97298.72;5071183;28;20076;-72
2023/06/18 11:29:31;;;;;;;0.00;0.00;;;;;;;28.72;22.79;97306.41;5075395;28;20499;-71
2023/06/18 11:31:59;;;;;;;0.00;0.00;;;;;;;28.27;23.84;97299.44;5069210;28;20132;-72
2023/06/18 11:34:27;;;;;;;0.00;0.00;;;;;;;28.68;23.56;97301.84;5080118;28;20041;-72
2023/06/18 11:36:56;;;;;;;0.00;0.00;;;;;;;28.73;23.26;97298.97;5067770;28;20096;-72
2023/06/18 11:39:24;;;;;;;0.00;0.00;;;;;;;28.54;22.88;97287.44;5066263;28;20340;-72
2023/06/18 11:41:52;;;;;;;0.00;0.00;;;;;;;28.46;22.55;97291.75;5059338;28;20554;-72
2023/06/18 11:44:25;;;;;;;0.00;0.00;;;;;;;28.63;22.71;97291.03;5058740;28;20045;-71